Time;durP1;ratioP1;P1;durP2;ratioP2;P2;SDS_P1;SDS_P2;PMS_P1;PMS_P2;Temp;Humidity;BMP_temperature;BMP_pressure;BME280_temperature;BME280_humidity;BME280_pressure;Samples;Min_cycle;Max_cycle;Signal;HPM_P1;HPM_P2
2023/01/05 00:01:31;;;;;;;;;;;;;;;8.20;71.79;95461.44;4177994;28;19960;-74
2023/01/05 00:03:33;;;;;;;;;;;;;;;8.24;71.18;95454.19;4176829;28;19954;-75
2023/01/05 00:05:35;;;;;;;;;;;;;;;8.23;70.91;95457.75;4177198;28;20272;-74
2023/01/05 00:07:37;;;;;;;;;;;;;;;8.04;71.07;95463.66;4175869;28;19929;-74
2023/01/05 00:09:38;;;;;;;;;;;;;;;7.99;71.67;95457.00;4176818;28;19978;-74
2023/01/05 00:23:38;;;;;;;;;;;;;;;8.23;70.93;95442.09;4104227;28;19938;-72
2023/01/05 00:25:40;;;;;;;;;;;;;;;8.27;70.83;95433.88;4146763;28;20019;-74
2023/01/05 00:27:42;;;;;;;;;;;;;;;8.28;70.46;95434.69;4176925;28;20384;-74
2023/01/05 00:29:44;;;;;;;;;;;;;;;8.29;70.71;95434.59;4177156;28;19959;-72
2023/01/05 00:31:45;;;;;;;;;;;;;;;8.32;70.05;95433.50;4176225;28;20051;-72
2023/01/05 00:33:47;;;;;;;;;;;;;;;8.35;70.34;95423.63;4176077;28;20071;-73
2023/01/05 00:35:49;;;;;;;;;;;;;;;8.40;70.04;95420.63;4171263;28;20043;-73
2023/01/05 00:37:51;;;;;;;;;;;;;;;8.23;70.00;95424.63;4167710;28;19924;-73
2023/01/05 00:39:53;;;;;;;;;;;;;;;8.14;70.32;95421.00;4163300;28;20038;-73
2023/01/05 00:41:54;;;;;;;;;;;;;;;7.98;70.64;95429.28;4162080;28;20003;-72
2023/01/05 00:43:56;;;;;;;;;;;;;;;8.02;70.79;95426.41;4166401;28;20537;-72
2023/01/05 00:45:57;;;;;;;;;;;;;;;8.11;71.11;95428.25;4161504;28;20366;-72
2023/01/05 00:47:59;;;;;;;;;;;;;;;8.17;70.50;95423.38;4176440;28;19964;-73
2023/01/05 00:50:01;;;;;;;;;;;;;;;8.27;70.38;95423.44;4177061;28;20332;-72
2023/01/05 00:52:02;;;;;;;;;;;;;;;8.32;69.65;95420.44;4176244;28;19936;-72
2023/01/05 00:54:04;;;;;;;;;;;;;;;8.31;69.99;95424.03;4175984;28;19925;-73
2023/01/05 00:56:06;;;;;;;;;;;;;;;8.33;69.81;95422.94;4177027;28;19932;-73
2023/01/05 00:58:07;;;;;;;;;;;;;;;8.36;69.93;95421.84;4165487;28;19925;-72
2023/01/05 01:00:11;;;;;;;;;;;;;;;8.45;70.06;95425.50;4165830;28;19929;-75
2023/01/05 01:02:12;;;;;;;;;;;;;;;8.47;69.40;95424.41;4151625;28;20008;-73
2023/01/05 01:04:14;;;;;;;;;;;;;;;8.51;69.57;95425.81;4157829;28;20364;-73
2023/01/05 01:06:16;;;;;;;;;;;;;;;8.56;69.45;95422.81;4163812;28;20433;-74
2023/01/05 01:08:18;;;;;;;;;;;;;;;8.61;69.42;95425.88;4176947;28;19924;-72
2023/01/05 01:10:19;;;;;;;;;;;;;;;8.65;69.05;95426.44;4176225;28;20004;-70
2023/01/05 01:12:21;;;;;;;;;;;;;;;8.69;68.43;95422.59;4176261;28;19933;-73
2023/01/05 01:14:22;;;;;;;;;;;;;;;8.61;69.08;95431.09;4176010;28;20434;-72
2023/01/05 01:16:24;;;;;;;;;;;;;;;8.46;69.09;95425.38;4176186;28;19931;-73
2023/01/05 01:18:25;;;;;;;;;;;;;;;8.30;69.35;95420.59;4171326;28;19921;-73
2023/01/05 01:20:27;;;;;;;;;;;;;;;8.23;69.99;95421.22;4168338;28;20307;-74
2023/01/05 01:22:28;;;;;;;;;;;;;;;8.16;69.24;95416.50;4175747;28;19927;-73
2023/01/05 01:24:31;;;;;;;;;;;;;;;7.77;70.93;95424.03;4176037;28;20380;-74
2023/01/05 01:26:32;;;;;;;;;;;;;;;7.77;71.45;95410.97;4175691;28;19971;-73
2023/01/05 01:28:34;;;;;;;;;;;;;;;7.78;71.21;95407.41;4175683;28;20039;-75
2023/01/05 01:30:37;;;;;;;;;;;;;;;7.62;72.12;95404.41;4175393;28;19948;-73
2023/01/05 01:32:38;;;;;;;;;;;;;;;7.72;72.03;95394.88;4174383;28;20003;-76
2023/01/05 01:34:40;;;;;;;;;;;;;;;7.90;71.95;95394.34;4174226;28;19925;-71
2023/01/05 01:36:41;;;;;;;;;;;;;;;8.05;71.36;95393.06;4176611;28;19967;-70
2023/01/05 01:38:43;;;;;;;;;;;;;;;8.04;70.62;95391.41;4173963;28;19920;-73
2023/01/05 01:40:45;;;;;;;;;;;;;;;7.94;71.41;95380.09;4175944;28;19943;-72
2023/01/05 01:42:47;;;;;;;;;;;;;;;7.98;70.73;95373.66;4175850;28;20461;-74
2023/01/05 01:44:48;;;;;;;;;;;;;;;8.06;70.93;95378.22;4174695;28;19967;-72
2023/01/05 01:46:50;;;;;;;;;;;;;;;8.21;70.42;95374.34;4175705;28;20368;-72
2023/01/05 01:48:53;;;;;;;;;;;;;;;8.38;70.58;95365.94;4174735;28;20267;-72
2023/01/05 01:50:55;;;;;;;;;;;;;;;8.48;69.22;95366.03;4158132;28;19928;-72
2023/01/05 01:52:58;;;;;;;;;;;;;;;8.59;68.75;95362.50;4175511;28;19920;-74
2023/01/05 01:55:00;;;;;;;;;;;;;;;8.65;69.04;95350.69;4146926;28;19937;-73
2023/01/05 01:57:01;;;;;;;;;;;;;;;8.70;69.54;95351.97;4174775;28;19983;-73
2023/01/05 01:59:03;;;;;;;;;;;;;;;8.79;69.22;95351.16;4153582;28;20395;-71
2023/01/05 02:01:04;;;;;;;;;;;;;;;8.85;68.62;95343.78;4165199;28;19925;-73
2023/01/05 02:03:07;;;;;;;;;;;;;;;8.87;68.16;95342.69;4175428;28;19967;-73
2023/01/05 02:05:10;;;;;;;;;;;;;;;8.88;68.23;95341.69;4175914;28;20002;-71
2023/01/05 02:07:11;;;;;;;;;;;;;;;8.84;67.59;95342.09;4174987;28;20210;-73
2023/01/05 02:09:13;;;;;;;;;;;;;;;8.79;68.55;95332.06;4174993;28;19925;-74
2023/01/05 02:11:23;;;;;;;;;;;;;;;8.78;68.64;95331.22;4176303;28;20417;-74
2023/01/05 02:13:37;;;;;;;;;;;;;;;8.76;68.25;95337.56;4157395;28;19921;-72
2023/01/05 02:15:42;;;;;;;;;;;;;;;8.71;68.05;95327.50;4175647;28;19982;-75
2023/01/05 02:17:43;;;;;;;;;;;;;;;8.72;68.57;95325.72;4157886;28;20422;-73
2023/01/05 02:20:04;;;;;;;;;;;;;;;8.75;67.73;95320.22;4165115;28;19983;-74
2023/01/05 02:22:17;;;;;;;;;;;;;;;8.74;68.31;95321.19;4163928;28;19966;-73
2023/01/05 02:24:25;;;;;;;;;;;;;;;8.76;68.33;95325.31;4171810;28;19925;-75
2023/01/05 02:26:46;;;;;;;;;;;;;;;8.81;67.86;95317.06;4171293;28;20043;-73
2023/01/05 02:29:06;;;;;;;;;;;;;;;8.83;67.72;95325.59;4172729;28;20012;-72
2023/01/05 02:31:14;;;;;;;;;;;;;;;8.87;67.97;95327.00;4174729;28;19935;-73
2023/01/05 02:33:15;;;;;;;;;;;;;;;8.87;67.87;95321.78;4164438;28;20351;-76
2023/01/05 02:35:20;;;;;;;;;;;;;;;8.86;67.91;95321.91;4175079;28;19927;-74
2023/01/05 02:37:23;;;;;;;;;;;;;;;8.85;67.51;95325.47;4175402;28;20413;-75
2023/01/05 02:39:37;;;;;;;;;;;;;;;8.85;68.16;95323.69;4161146;28;19928;-74
2023/01/05 02:41:52;;;;;;;;;;;;;;;8.89;68.00;95330.31;4170443;28;19928;-71
2023/01/05 02:43:57;;;;;;;;;;;;;;;8.93;67.55;95328.25;4157407;28;20265;-73
2023/01/05 02:45:59;;;;;;;;;;;;;;;8.98;67.49;95329.50;4171750;28;20431;-74
2023/01/05 02:48:01;;;;;;;;;;;;;;;9.00;67.32;95314.50;4171153;28;19975;-73
2023/01/05 02:50:07;;;;;;;;;;;;;;;9.02;67.69;95309.16;4171894;28;19920;-73
2023/01/05 02:52:09;;;;;;;;;;;;;;;8.98;67.72;95316.44;4147896;28;19925;-75
2023/01/05 02:54:16;;;;;;;;;;;;;;;8.93;68.11;95304.75;4171572;28;19921;-75
2023/01/05 02:56:36;;;;;;;;;;;;;;;8.89;67.48;95300.75;4157343;28;20032;-74
2023/01/05 02:58:45;;;;;;;;;;;;;;;8.90;67.80;95292.75;4148537;28;19925;-71
2023/01/05 03:00:51;;;;;;;;;;;;;;;8.93;67.52;95295.13;4175976;28;20061;-76
2023/01/05 03:02:54;;;;;;;;;;;;;;;8.92;67.39;95287.41;4162288;28;19920;-75
2023/01/05 03:05:06;;;;;;;;;;;;;;;8.93;67.94;95282.03;4178959;28;19928;-73
2023/01/05 03:07:11;;;;;;;;;;;;;;;8.92;67.40;95288.22;4147743;28;20011;-73
2023/01/05 03:09:13;;;;;;;;;;;;;;;8.89;67.62;95282.44;4160107;28;19921;-74
2023/01/05 03:13:40;;;;;;;;;;;;;;;8.83;68.03;95278.56;4176441;28;19940;-74
2023/01/05 03:15:42;;;;;;;;;;;;;;;8.79;67.95;95266.75;4159931;28;20009;-74
2023/01/05 03:17:48;;;;;;;;;;;;;;;8.72;68.49;95266.44;4170657;28;19925;-73
2023/01/05 03:19:49;;;;;;;;;;;;;;;8.71;67.70;95263.97;4151092;28;19930;-74
2023/01/05 03:36:46;;;;;;;;;;;;;;;8.69;67.56;95240.63;4162785;28;20176;-74
2023/01/05 03:38:48;;;;;;;;;;;;;;;8.65;68.26;95243.59;4165753;28;19921;-73
2023/01/05 03:40:50;;;;;;;;;;;;;;;8.66;68.33;95237.44;4159844;28;20027;-72
2023/01/05 03:42:53;;;;;;;;;;;;;;;8.72;67.92;95239.50;4164894;28;19985;-73
2023/01/05 03:44:54;;;;;;;;;;;;;;;8.76;67.55;95241.72;4171916;28;19939;-73
2023/01/05 03:46:56;;;;;;;;;;;;;;;8.74;68.23;95243.63;4161470;28;19994;-73
2023/01/05 03:48:57;;;;;;;;;;;;;;;8.71;68.26;95250.91;4156328;28;19925;-72
2023/01/05 03:50:59;;;;;;;;;;;;;;;8.67;68.23;95247.75;4161836;28;20599;-73
2023/01/05 03:53:01;;;;;;;;;;;;;;;8.69;68.05;95245.84;4161560;28;19921;-73
2023/01/05 03:55:02;;;;;;;;;;;;;;;8.69;68.32;95250.22;4161508;28;20055;-74
2023/01/05 03:57:04;;;;;;;;;;;;;;;8.65;68.67;95246.22;4162790;28;19956;-81
2023/01/05 03:59:05;;;;;;;;;;;;;;;8.56;68.64;95247.84;4173869;28;19925;-73
2023/01/05 04:01:07;;;;;;;;;;;;;;;8.60;69.21;95246.63;4161448;28;20364;-73
2023/01/05 04:03:09;;;;;;;;;;;;;;;8.60;68.30;95247.47;4153880;28;19936;-72
2023/01/05 04:05:11;;;;;;;;;;;;;;;8.60;68.26;95244.00;4174305;28;19925;-74
2023/01/05 04:07:12;;;;;;;;;;;;;;;8.66;68.74;95240.03;4165894;28;20081;-73
2023/01/05 04:09:14;;;;;;;;;;;;;;;8.70;68.68;95241.44;4169494;28;19933;-73
2023/01/05 04:11:17;;;;;;;;;;;;;;;8.71;68.60;95232.63;4172509;28;19931;-71
2023/01/05 04:13:19;;;;;;;;;;;;;;;8.76;67.94;95230.44;4176532;28;20302;-72
2023/01/05 04:15:20;;;;;;;;;;;;;;;8.80;67.31;95231.84;4159926;28;19960;-72
2023/01/05 04:17:22;;;;;;;;;;;;;;;8.78;67.89;95234.56;4176363;28;20062;-72
2023/01/05 04:19:23;;;;;;;;;;;;;;;8.79;67.75;95230.16;4176631;28;20133;-71
2023/01/05 04:21:25;;;;;;;;;;;;;;;8.80;67.56;95229.22;4172537;28;20443;-71
2023/01/05 04:23:27;;;;;;;;;;;;;;;8.75;67.36;95218.34;4165754;28;19935;-73
2023/01/05 04:25:28;;;;;;;;;;;;;;;8.78;67.67;95218.09;4176259;28;19975;-71
2023/01/05 04:27:30;;;;;;;;;;;;;;;8.76;67.49;95218.22;4176182;28;20299;-73
2023/01/05 04:29:31;;;;;;;;;;;;;;;8.78;67.56;95215.47;4176640;28;20437;-72
2023/01/05 04:31:33;;;;;;;;;;;;;;;8.75;67.82;95221.75;4175695;28;20315;-74
2023/01/05 04:33:38;;;;;;;;;;;;;;;8.73;67.36;95217.63;4175549;28;19928;-73
2023/01/05 04:35:39;;;;;;;;;;;;;;;8.65;68.04;95218.34;4173569;28;19928;-72
2023/01/05 04:37:41;;;;;;;;;;;;;;;8.60;67.79;95221.34;4176288;28;19999;-73
2023/01/05 04:39:43;;;;;;;;;;;;;;;8.57;68.65;95221.59;4172850;28;20383;-72
2023/01/05 04:41:44;;;;;;;;;;;;;;;8.54;68.57;95221.88;4160439;28;19944;-70
2023/01/05 04:43:46;;;;;;;;;;;;;;;8.33;68.07;95221.91;4170860;28;19943;-72
2023/01/05 04:45:47;;;;;;;;;;;;;;;8.21;69.32;95229.00;4162804;28;19925;-74
2023/01/05 04:47:50;;;;;;;;;;;;;;;7.88;69.70;95224.06;4164698;28;20338;-72
2023/01/05 04:49:51;;;;;;;;;;;;;;;7.77;70.61;95231.00;4176442;28;20383;-71
2023/01/05 04:51:53;;;;;;;;;;;;;;;7.75;71.03;95229.50;4165825;28;19933;-73
2023/01/05 04:53:55;;;;;;;;;;;;;;;7.57;71.51;95232.69;4160919;28;20323;-71
2023/01/05 04:55:56;;;;;;;;;;;;;;;7.20;72.41;95226.22;4160830;28;19983;-71
2023/01/05 04:57:58;;;;;;;;;;;;;;;7.08;73.41;95241.91;4169064;28;19947;-72
2023/01/05 05:00:00;;;;;;;;;;;;;;;6.96;73.70;95243.72;4164997;28;20003;-72
2023/01/05 05:02:01;;;;;;;;;;;;;;;6.95;74.06;95242.09;4162054;28;19928;-75
2023/01/05 05:04:03;;;;;;;;;;;;;;;6.98;74.40;95241.81;4171055;28;20507;-72
2023/01/05 05:06:05;;;;;;;;;;;;;;;7.13;74.02;95242.34;4171341;28;19921;-72
2023/01/05 05:08:07;;;;;;;;;;;;;;;7.23;73.60;95241.59;4176007;28;19943;-74
2023/01/05 05:10:08;;;;;;;;;;;;;;;7.35;73.02;95240.59;4161298;28;19951;-75
2023/01/05 05:12:10;;;;;;;;;;;;;;;7.38;72.66;95243.78;4150663;28;19937;-74
2023/01/05 05:14:11;;;;;;;;;;;;;;;7.40;72.45;95246.28;4176598;28;19920;-74
2023/01/05 05:16:13;;;;;;;;;;;;;;;7.49;72.15;95242.91;4158195;28;19925;-73
2023/01/05 05:18:15;;;;;;;;;;;;;;;7.54;72.28;95243.34;4175542;28;19932;-75
2023/01/05 05:20:16;;;;;;;;;;;;;;;7.67;71.93;95242.34;4175819;28;19963;-72
2023/01/05 05:22:18;;;;;;;;;;;;;;;7.71;71.08;95243.75;4174460;28;19932;-74
2023/01/05 05:24:19;;;;;;;;;;;;;;;7.76;71.15;95252.81;4169930;28;19925;-72
2023/01/05 05:26:21;;;;;;;;;;;;;;;7.82;71.02;95248.06;4175491;28;19920;-73
2023/01/05 05:28:26;;;;;;;;;;;;;;;7.88;70.59;95248.38;4175881;28;19951;-72
2023/01/05 05:30:28;;;;;;;;;;;;;;;7.98;70.91;95245.81;4176129;28;20122;-73
2023/01/05 05:32:30;;;;;;;;;;;;;;;8.00;70.55;95249.09;4174917;28;19929;-73
2023/01/05 05:34:31;;;;;;;;;;;;;;;7.99;70.05;95240.44;4176198;28;20405;-72
2023/01/05 05:36:35;;;;;;;;;;;;;;;8.02;69.87;95231.53;4175766;28;19959;-72
2023/01/05 05:38:36;;;;;;;;;;;;;;;8.04;69.21;95229.63;4175684;28;20007;-74
2023/01/05 05:40:38;;;;;;;;;;;;;;;8.08;69.62;95223.19;4175064;28;20000;-73
2023/01/05 05:42:39;;;;;;;;;;;;;;;8.09;69.38;95224.84;4175753;28;19924;-74
2023/01/05 05:44:41;;;;;;;;;;;;;;;8.10;69.89;95226.50;4175278;28;19925;-71
2023/01/05 05:46:42;;;;;;;;;;;;;;;8.07;69.31;95212.91;4174539;28;20000;-72
2023/01/05 05:48:44;;;;;;;;;;;;;;;8.01;69.29;95211.63;4174998;28;20040;-73
2023/01/05 05:50:46;;;;;;;;;;;;;;;7.96;69.13;95206.00;4175280;28;20048;-71
2023/01/05 05:52:47;;;;;;;;;;;;;;;7.99;69.54;95197.88;4175898;28;20218;-73
2023/01/05 05:54:49;;;;;;;;;;;;;;;8.02;69.73;95197.63;4174816;28;20011;-73
2023/01/05 05:56:50;;;;;;;;;;;;;;;7.97;69.65;95195.41;4175242;28;20090;-73
2023/01/05 05:58:52;;;;;;;;;;;;;;;7.93;69.34;95201.00;4175539;28;19928;-73
2023/01/05 06:01:01;;;;;;;;;;;;;;;7.91;70.12;95202.94;4175248;28;20366;-72
2023/01/05 06:03:03;;;;;;;;;;;;;;;7.85;70.13;95198.22;4174907;28;20367;-72
2023/01/05 06:05:05;;;;;;;;;;;;;;;7.91;69.60;95202.94;4171723;28;20350;-73
2023/01/05 06:07:07;;;;;;;;;;;;;;;7.89;70.09;95194.41;4175284;28;20309;-73
2023/01/05 06:09:08;;;;;;;;;;;;;;;7.89;69.96;95195.22;4175213;28;20295;-71
2023/01/05 06:11:10;;;;;;;;;;;;;;;7.90;69.75;95193.47;4176003;28;20368;-71
2023/01/05 06:13:12;;;;;;;;;;;;;;;7.90;70.07;95188.25;4175719;28;19979;-73
2023/01/05 06:15:13;;;;;;;;;;;;;;;7.94;69.00;95187.03;4160230;28;19921;-73
2023/01/05 06:17:15;;;;;;;;;;;;;;;7.96;69.67;95190.34;4159039;28;19990;-75
2023/01/05 06:19:17;;;;;;;;;;;;;;;8.01;69.48;95175.09;4167159;28;20291;-75
2023/01/05 06:21:20;;;;;;;;;;;;;;;8.04;69.76;95180.03;4175379;28;20419;-72
2023/01/05 06:23:21;;;;;;;;;;;;;;;8.07;69.05;95182.41;4165438;28;20007;-72
2023/01/05 06:25:23;;;;;;;;;;;;;;;8.11;69.15;95178.59;4168823;28;20011;-73
2023/01/05 06:27:25;;;;;;;;;;;;;;;8.23;68.55;95181.91;4166972;28;19925;-72
2023/01/05 06:29:26;;;;;;;;;;;;;;;8.37;68.27;95181.53;4171736;28;19928;-72
2023/01/05 06:31:28;;;;;;;;;;;;;;;8.45;68.18;95180.06;4156676;28;20324;-71
2023/01/05 06:33:30;;;;;;;;;;;;;;;8.48;68.15;95175.41;4174986;28;19960;-74
2023/01/05 06:35:31;;;;;;;;;;;;;;;8.47;67.55;95173.75;4175080;28;20373;-70
2023/01/05 06:37:33;;;;;;;;;;;;;;;8.50;67.98;95172.69;4181849;28;19920;-71
2023/01/05 06:39:35;;;;;;;;;;;;;;;8.60;67.67;95169.13;4179890;28;19936;-75
2023/01/05 06:41:36;;;;;;;;;;;;;;;8.87;66.46;95170.22;4180657;28;20313;-73
2023/01/05 06:43:38;;;;;;;;;;;;;;;9.07;66.58;95167.63;4180850;28;19943;-74
2023/01/05 06:45:39;;;;;;;;;;;;;;;9.10;65.97;95169.94;4167391;28;19924;-74
2023/01/05 06:47:41;;;;;;;;;;;;;;;9.02;64.91;95176.69;4166167;28;20281;-73
2023/01/05 06:49:43;;;;;;;;;;;;;;;8.59;66.12;95177.09;4179638;28;19924;-73
2023/01/05 06:51:44;;;;;;;;;;;;;;;7.85;68.83;95178.22;4178354;28;19943;-73
2023/01/05 06:53:46;;;;;;;;;;;;;;;7.58;69.93;95171.75;4179835;28;20268;-75
2023/01/05 06:55:48;;;;;;;;;;;;;;;7.58;70.41;95170.94;4176797;28;20153;-74
2023/01/05 06:57:49;;;;;;;;;;;;;;;7.75;70.12;95178.16;4180928;28;19937;-74
2023/01/05 06:59:59;;;;;;;;;;;;;;;7.93;69.60;95182.75;4163812;28;19931;-74
2023/01/05 07:02:00;;;;;;;;;;;;;;;8.15;69.70;95174.75;4169077;28;19991;-72
2023/01/05 07:04:02;;;;;;;;;;;;;;;8.33;68.63;95171.50;4172879;28;20281;-76
2023/01/05 07:06:04;;;;;;;;;;;;;;;8.38;67.64;95172.72;4174225;28;19971;-75
2023/01/05 07:08:13;;;;;;;;;;;;;;;8.13;68.42;95171.44;4171097;28;20256;-74
2023/01/05 07:10:14;;;;;;;;;;;;;;;7.76;69.74;95171.97;4171430;28;19955;-84
2023/01/05 07:12:16;;;;;;;;;;;;;;;7.72;70.67;95178.41;4174743;28;19945;-74
2023/01/05 07:14:18;;;;;;;;;;;;;;;7.76;70.91;95178.97;4181374;28;19991;-73
2023/01/05 07:16:19;;;;;;;;;;;;;;;7.78;70.75;95177.88;4180725;28;19983;-74
2023/01/05 07:18:21;;;;;;;;;;;;;;;7.85;70.83;95172.13;4180000;28;20449;-75
2023/01/05 07:20:22;;;;;;;;;;;;;;;7.96;70.60;95175.50;4177055;28;19921;-79
2023/01/05 07:22:24;;;;;;;;;;;;;;;8.06;69.85;95178.13;4164574;28;19978;-74
2023/01/05 07:24:26;;;;;;;;;;;;;;;8.14;68.75;95167.88;4174607;28;19942;-76
2023/01/05 07:26:28;;;;;;;;;;;;;;;8.21;68.96;95171.59;4177650;28;19925;-76
2023/01/05 07:28:29;;;;;;;;;;;;;;;8.18;68.95;95163.22;4165234;28;19964;-74
2023/01/05 07:30:31;;;;;;;;;;;;;;;8.18;69.11;95168.44;4147258;28;19976;-70
2023/01/05 07:32:32;;;;;;;;;;;;;;;8.05;69.24;95162.63;4163339;28;20391;-74
2023/01/05 07:34:34;;;;;;;;;;;;;;;8.16;71.13;95158.13;4173767;28;19974;-74
2023/01/05 07:36:36;;;;;;;;;;;;;;;8.24;69.94;95159.22;4168520;28;19931;-73
2023/01/05 07:38:37;;;;;;;;;;;;;;;8.18;69.23;95142.34;4180383;28;20364;-74
2023/01/05 07:40:39;;;;;;;;;;;;;;;8.17;69.04;95146.75;4180061;28;19951;-72
2023/01/05 07:42:41;;;;;;;;;;;;;;;8.27;69.69;95146.75;4179403;28;20009;-75
2023/01/05 07:44:44;;;;;;;;;;;;;;;8.41;69.10;95145.59;4162577;28;20188;-71
2023/01/05 07:46:45;;;;;;;;;;;;;;;8.44;68.54;95140.09;4177912;28;20244;-71
2023/01/05 07:48:47;;;;;;;;;;;;;;;8.53;68.99;95141.88;4176656;28;19921;-73
2023/01/05 07:50:49;;;;;;;;;;;;;;;8.59;68.39;95138.72;4175567;28;19935;-73
2023/01/05 07:52:50;;;;;;;;;;;;;;;8.72;68.76;95135.84;4161501;28;19921;-74
2023/01/05 07:54:52;;;;;;;;;;;;;;;8.88;69.04;95145.75;4170196;28;19924;-74
2023/01/05 07:56:53;;;;;;;;;;;;;;;8.98;68.38;95143.97;4165505;28;19968;-74
2023/01/05 07:58:56;;;;;;;;;;;;;;;9.01;67.71;95137.63;4161504;28;19924;-73
2023/01/05 08:01:02;;;;;;;;;;;;;;;9.00;67.60;95139.41;4162715;28;19943;-73
2023/01/05 08:03:03;;;;;;;;;;;;;;;8.96;67.38;95135.44;4173798;28;20404;-71
2023/01/05 08:05:05;;;;;;;;;;;;;;;8.87;67.04;95133.66;4173080;28;19929;-74
2023/01/05 08:07:10;;;;;;;;;;;;;;;8.73;67.68;95134.91;4177858;28;20070;-72
2023/01/05 08:11:32;;;;;;;;;;;;;;;8.78;68.36;95131.88;4173565;28;19929;-74
2023/01/05 08:15:54;;;;;;;;;;;;;;;8.85;68.42;95117.28;4169523;28;19928;-73
2023/01/05 08:17:56;;;;;;;;;;;;;;;8.96;67.90;95121.53;4164949;28;20234;-74
2023/01/05 08:19:57;;;;;;;;;;;;;;;9.02;66.81;95121.81;4167722;28;20096;-73
2023/01/05 08:22:00;;;;;;;;;;;;;;;9.07;66.27;95131.03;4180544;28;19928;-74
2023/01/05 08:24:02;;;;;;;;;;;;;;;9.05;66.58;95130.34;4171305;28;20395;-75
2023/01/05 08:26:10;;;;;;;;;;;;;;;9.00;67.17;95136.81;4170140;28;19936;-74
2023/01/05 08:28:12;;;;;;;;;;;;;;;9.02;66.57;95136.69;4148135;28;19929;-74
2023/01/05 08:30:13;;;;;;;;;;;;;;;8.92;67.67;95136.66;4155281;28;19925;-75
2023/01/05 08:32:15;;;;;;;;;;;;;;;9.00;66.99;95136.00;4176210;28;19929;-72
2023/01/05 08:34:16;;;;;;;;;;;;;;;9.12;66.70;95134.03;4174815;28;19921;-74
2023/01/05 08:36:19;;;;;;;;;;;;;;;9.18;66.52;95139.56;4179329;28;19927;-72
2023/01/05 08:38:21;;;;;;;;;;;;;;;9.31;66.09;95131.41;4161870;28;20042;-77
2023/01/05 08:40:24;;;;;;;;;;;;;;;9.17;65.33;95124.81;4173676;28;19927;-75
2023/01/05 08:42:25;;;;;;;;;;;;;;;9.09;66.37;95127.31;4163771;28;19960;-73
2023/01/05 08:44:27;;;;;;;;;;;;;;;9.24;67.47;95127.69;4179013;28;19921;-76
2023/01/05 08:46:31;;;;;;;;;;;;;;;9.48;66.68;95119.38;4148640;28;20416;-74
2023/01/05 08:48:33;;;;;;;;;;;;;;;9.54;66.87;95118.00;4164729;28;19933;-76
2023/01/05 08:50:37;;;;;;;;;;;;;;;9.55;65.92;95112.63;4156976;28;19991;-74
2023/01/05 08:52:38;;;;;;;;;;;;;;;9.55;64.85;95111.78;4145692;28;19936;-75
2023/01/05 08:54:40;;;;;;;;;;;;;;;9.60;66.25;95107.78;4165805;28;19933;-73
2023/01/05 08:56:43;;;;;;;;;;;;;;;9.55;64.79;95098.72;4164185;28;19925;-74
2023/01/05 08:58:44;;;;;;;;;;;;;;;9.61;64.63;95106.00;4147250;28;19944;-75
2023/01/05 09:00:46;;;;;;;;;;;;;;;9.83;65.06;95097.78;4171952;28;20359;-76
2023/01/05 09:02:48;;;;;;;;;;;;;;;10.13;63.91;95097.63;4179973;28;20408;-75
2023/01/05 09:04:49;;;;;;;;;;;;;;;10.45;63.04;95089.34;4166343;28;19921;-77
2023/01/05 09:06:52;;;;;;;;;;;;;;;10.66;62.03;95084.63;4181428;28;20234;-74
2023/01/05 09:08:53;;;;;;;;;;;;;;;10.88;61.30;95074.66;4180713;28;19920;-75
2023/01/05 09:11:04;;;;;;;;;;;;;;;11.10;60.06;95065.50;4174593;28;19960;-73
2023/01/05 09:13:05;;;;;;;;;;;;;;;11.22;59.56;95066.06;4178459;28;19921;-74
2023/01/05 09:15:07;;;;;;;;;;;;;;;11.10;58.84;95055.00;4163334;28;19929;-74
2023/01/05 09:17:09;;;;;;;;;;;;;;;10.99;59.81;95050.00;4170528;28;20419;-75
2023/01/05 09:19:11;;;;;;;;;;;;;;;11.10;59.33;95052.41;4181662;28;20041;-76
2023/01/05 09:21:13;;;;;;;;;;;;;;;11.23;59.18;95042.31;4175563;28;20193;-74
2023/01/05 09:23:14;;;;;;;;;;;;;;;11.36;58.60;95035.84;4167326;28;19925;-72
2023/01/05 09:25:16;;;;;;;;;;;;;;;11.40;58.01;95021.41;4150125;28;19968;-73
2023/01/05 09:27:17;;;;;;;;;;;;;;;11.48;57.74;95009.16;4171535;28;20019;-74
2023/01/05 09:29:19;;;;;;;;;;;;;;;11.53;57.85;95003.47;4174367;28;19924;-76
2023/01/05 09:31:21;;;;;;;;;;;;;;;11.46;57.68;94999.81;4173070;28;19920;-75
2023/01/05 09:33:23;;;;;;;;;;;;;;;11.51;57.86;95002.78;4171686;28;19928;-76
2023/01/05 09:35:25;;;;;;;;;;;;;;;11.57;57.77;95002.16;4181209;28;19970;-79
2023/01/05 09:37:27;;;;;;;;;;;;;;;11.63;57.55;95009.38;4179423;28;20028;-74
2023/01/05 09:39:28;;;;;;;;;;;;;;;11.71;57.13;95007.78;4167915;28;19947;-79
2023/01/05 09:41:49;;;;;;;;;;;;;;;11.80;56.83;95005.03;4179737;28;19943;-76
2023/01/05 09:43:51;;;;;;;;;;;;;;;11.80;56.54;94991.09;4171523;28;19960;-77
2023/01/05 09:45:53;;;;;;;;;;;;;;;11.81;56.49;94983.06;4162284;28;19943;-75
2023/01/05 09:47:55;;;;;;;;;;;;;;;11.79;56.82;94971.09;4172056;28;19921;-75
2023/01/05 09:49:56;;;;;;;;;;;;;;;11.89;57.39;94974.41;4162448;28;19948;-72
2023/01/05 09:52:00;;;;;;;;;;;;;;;11.95;57.27;94963.25;4180504;28;20283;-74
2023/01/05 09:54:02;;;;;;;;;;;;;;;12.06;57.30;94964.75;4162478;28;20001;-74
2023/01/05 09:56:03;;;;;;;;;;;;;;;12.18;56.59;94965.28;4161685;28;20307;-75
2023/01/05 09:58:06;;;;;;;;;;;;;;;12.23;56.95;94968.22;4181033;28;19998;-76
2023/01/05 10:00:10;;;;;;;;;;;;;;;12.23;56.49;94961.16;4161552;28;19924;-74
2023/01/05 10:02:18;;;;;;;;;;;;;;;12.23;56.00;94955.91;4160466;28;19973;-75
2023/01/05 10:04:20;;;;;;;;;;;;;;;12.17;55.24;94950.50;4180014;28;19972;-74
2023/01/05 10:06:36;;;;;;;;;;;;;;;12.25;55.81;94956.56;4161298;28;19921;-75
2023/01/05 10:08:39;;;;;;;;;;;;;;;12.18;55.86;94952.16;4158863;28;19966;-74
2023/01/05 10:13:20;;;;;;;;;;;;;;;12.21;55.45;94957.88;4169191;28;19925;-73
2023/01/05 10:15:22;;;;;;;;;;;;;;;12.18;54.95;94952.16;4178342;28;19925;-75
2023/01/05 10:17:24;;;;;;;;;;;;;;;12.16;55.17;94940.97;4161252;28;19925;-77
2023/01/05 10:19:44;;;;;;;;;;;;;;;12.17;55.27;94935.53;4164551;28;19925;-74
2023/01/05 10:21:49;;;;;;;;;;;;;;;11.96;55.27;94943.06;4161978;28;20505;-75
2023/01/05 10:24:02;;;;;;;;;;;;;;;11.90;55.37;94941.13;4174287;28;19932;-75
2023/01/05 10:26:06;;;;;;;;;;;;;;;11.93;55.54;94941.59;4146410;28;19976;-76
2023/01/05 10:28:08;;;;;;;;;;;;;;;11.97;55.34;94932.41;4155096;28;20365;-74
2023/01/05 10:30:22;;;;;;;;;;;;;;;11.99;55.39;94933.06;4179628;28;19955;-73
2023/01/05 10:32:27;;;;;;;;;;;;;;;11.97;54.97;94924.53;4180977;28;20012;-71
2023/01/05 10:34:41;;;;;;;;;;;;;;;11.77;54.25;94924.00;4161923;28;20247;-74
2023/01/05 10:36:58;;;;;;;;;;;;;;;11.82;55.80;94923.50;4176485;28;20008;-74
2023/01/05 10:39:25;;;;;;;;;;;;;;;12.11;54.94;94927.50;4169949;28;19932;-74
2023/01/05 10:41:38;;;;;;;;;;;;;;;12.28;54.18;94919.50;4176997;28;20313;-74
2023/01/05 10:43:59;;;;;;;;;;;;;;;12.47;54.33;94905.16;4139444;28;19956;-75
2023/01/05 10:46:01;;;;;;;;;;;;;;;12.59;53.27;94900.41;4165929;28;20321;-76
2023/01/05 10:48:26;;;;;;;;;;;;;;;12.58;53.45;94892.69;4173117;28;20348;-75
2023/01/05 10:50:35;;;;;;;;;;;;;;;12.54;53.08;94884.34;4169983;28;19982;-75
2023/01/05 10:52:37;;;;;;;;;;;;;;;12.59;52.59;94881.22;4153327;28;19933;-77
2023/01/05 10:54:49;;;;;;;;;;;;;;;12.64;52.64;94879.69;4165318;28;19925;-75
2023/01/05 10:56:51;;;;;;;;;;;;;;;12.34;53.18;94883.03;4134629;28;19921;-75
2023/01/05 10:59:06;;;;;;;;;;;;;;;12.51;53.60;94884.66;4162151;28;19932;-76
2023/01/05 11:01:20;;;;;;;;;;;;;;;12.78;52.75;94869.50;4168645;28;19920;-73
2023/01/05 11:03:26;;;;;;;;;;;;;;;13.14;59.65;94875.13;4156246;28;19979;-76
2023/01/05 11:05:47;;;;;;;;;;;;;;;13.41;56.89;94866.00;4143588;28;19987;-76
2023/01/05 11:07:50;;;;;;;;;;;;;;;13.70;62.68;94867.16;4153972;28;20414;-76
2023/01/05 11:09:53;;;;;;;;;;;;;;;13.71;53.05;94866.16;4171431;28;20039;-72
2023/01/05 11:11:55;;;;;;;;;;;;;;;13.57;59.15;94861.63;4168446;28;19920;-73
2023/01/05 11:13:56;;;;;;;;;;;;;;;13.60;58.15;94858.66;4160206;28;19921;-75
2023/01/05 11:15:59;;;;;;;;;;;;;;;13.81;62.63;94860.66;4150335;28;19968;-76
2023/01/05 11:18:01;;;;;;;;;;;;;;;13.92;61.30;94855.00;4160274;28;19921;-75
2023/01/05 11:20:05;;;;;;;;;;;;;;;14.06;59.37;94848.13;4173916;28;19966;-76
2023/01/05 11:22:25;;;;;;;;;;;;;;;14.19;60.88;94852.81;4160089;28;20015;-74
2023/01/05 11:24:30;;;;;;;;;;;;;;;14.37;61.75;94855.13;4168743;28;19925;-76
2023/01/05 11:26:33;;;;;;;;;;;;;;;14.41;58.83;94849.34;4162678;28;20251;-76